Flight Track Log - Related Links

Times and Time Zones

All times are in EDT time to prevent confusion due to time zone crossing. See the GGN7280 flight status page for this flight to view local times or setup timezone preferences in your user account.

Time Position Orientation Groundspeed Altitude Reporting Facility
EDT Latitude Longitude Course Direction KTS MPH feet Rate Location/Type
Fri 06:33:19 PM 43.6667 -79.5833 216° Southwest 60 69 800  Level Toronto Center
Fri 06:34:20 PM 43.6333 -79.6167 216° Southwest 160 184 2,500 1,700 Climbing Toronto Center
Fri 06:35:19 PM 43.5833 -79.5833 154° Southeast 190 219 4,200 1,261 Climbing Toronto Center
Fri 06:36:19 PM 43.5500 -79.5167 125° Southeast 220 253 5,000 550 Climbing Toronto Center
Fri 06:37:19 PM 43.5333 -79.4333 105° East 250 288 5,300 500 Climbing Toronto Center
Fri 06:38:19 PM 43.5167 -79.3333 103° East 240 276 6,000 446 Climbing Toronto Center
Fri 06:39:20 PM 43.5167 -79.2500 90° East 260 299 6,200 1,000 Climbing Toronto Center
Fri 06:40:19 PM 43.5000 -79.1500 103° East 250 288 8,000 1,563 Climbing Toronto Center
Fri 06:41:19 PM 43.4833 -79.0667 105° East 240 276 9,300 1,350 Climbing Toronto Center
Fri 06:42:19 PM 43.4500 -78.9667 115° Southeast 240 276 10,700 843 Climbing Toronto Center
Fri 06:43:20 PM 43.4333 -78.8833 105° East 250 288 11,000 150 Climbing Toronto Center
Fri 06:44:19 PM 43.4000 -78.7833 115° Southeast 270 311 11,000  Level Toronto Center
Fri 06:45:20 PM 43.3833 -78.6667 101° East 280 322 11,000  Level Toronto Center
Fri 06:46:32 PM 43.3547 -78.5836 115° Southeast 279 321 11,000  Level Cleveland Center
Fri 06:47:34 PM 43.3292 -78.4814 109° East 283 326 11,000  Level Cleveland Center
Fri 06:48:47 PM 43.2958 -78.3458 109° East 284 327 11,000  Level Cleveland Center
Fri 06:49:48 PM 43.2681 -78.2450 111° Southeast 284 327 11,000  Level Cleveland Center
Fri 06:50:40 PM 43.2453 -78.1533 109° East 286 329 11,000  Level Cleveland Center
Fri 06:50:48 PM 43.2428 -78.1419 107° East 287 330 11,000 -968 Level Cleveland Center
Fri 06:51:42 PM 43.2400 -78.0417 92° East 297 342 10,000 -1,279 Descending Cleveland Center
Fri 06:51:49 PM 43.2403 -78.0281 88° East 304 350 9,700 -1,839 Descending Cleveland Center
Fri 06:52:44 PM 43.2392 -77.9267 91° East 300 345 8,100 -1,900 Descending Cleveland Center
Fri 06:52:49 PM 43.2381 -77.9111 96° East 304 350 7,800 -1,935 Descending Cleveland Center
Fri 06:53:46 PM 43.2364 -77.8139 91° East 298 343 6,100 -1,967 Descending Cleveland Center
Fri 06:53:50 PM 43.2367 -77.8033 88° East 285 328 5,800 -2,000 Descending Cleveland Center
Fri 06:54:49 PM 43.2361 -77.7156 90° East 267 307 4,000 -1,967 Descending Cleveland Center
Fri 06:54:51 PM 43.2358 -77.7044 92° East 249 287 3,800 -1,452 Descending Cleveland Center
Fri 06:55:51 PM 43.2328 -77.6222 93° East 255 293 2,500 -645 Descending Cleveland Center
Fri 06:56:52 PM 43.2025 -77.5358 116° Southeast 206 237 2,500  Level Cleveland Center
Fri 06:56:53 PM 43.2022 -77.5378 259° West 221 254 2,500 -95 Level Cleveland Center
Fri 06:57:55 PM 43.1708 -77.4903 132° Southeast 188 216 2,400 -185 Descending Cleveland Center
Fri 06:57:58 PM 43.1683 -77.4922 210° Southwest 155 178 2,300 -346 Descending Cleveland Center
Fri 06:58:47 PM 43.1453 -77.5208 222° Southwest 138 159 2,100 -305 Descending Cleveland Center
Fri 06:58:57 PM 43.1397 -77.5261 215° Southwest 159 183 2,000 -295 Descending Cleveland Center
Fri 06:59:48 PM 43.1258 -77.5678 245° Southwest 129 148 1,800 -194 Descending Cleveland Center
Fri 06:59:59 PM 43.1247 -77.5706 241° Southwest 141 162 1,800 -583 Level Cleveland Center
Fri 07:01:00 PM 43.1244 -77.6225 270° West 114 131 1,100 -677 Descending Cleveland Center
Fri 07:01:01 PM 43.1225 -77.6164 114° Southeast 129 148 1,100 -476 Level Cleveland Center
Fri 07:02:03 PM 43.1242 -77.6628 273° West 125 144 600 -484 Descending Cleveland Center

Login

Don't have an account? Register now (free) for customized features, flight alerts, and more!